Time;durP1;ratioP1;P1;durP2;ratioP2;P2;SDS_P1;SDS_P2;PMS_P1;PMS_P2;Temp;Humidity;BMP_temperature;BMP_pressure;BME280_temperature;BME280_humidity;BME280_pressure;Samples;Min_cycle;Max_cycle;Signal;HPM_P1;HPM_P2
2022/03/06 00:00:18;;;;;;;;;;;;;;;;;;5093342;28;19919;-67
2022/03/06 00:02:44;;;;;;;;;;;;;;;;;;5093700;28;19998;-67
2022/03/06 00:05:10;;;;;;;;;;;;;;;;;;5093848;28;19908;-67
2022/03/06 00:07:37;;;;;;;;;;;;;;;;;;5092003;28;20031;-67
2022/03/06 00:10:03;;;;;;;;;;;;;;;;;;5093660;28;19923;-67
2022/03/06 00:12:29;;;;;;;;;;;;;;;;;;5093632;28;19988;-67
2022/03/06 00:14:55;;;;;;;;;;;;;;;;;;5091902;28;19952;-67
2022/03/06 00:17:21;;;;;;;;;;;;;;;;;;5093782;28;19971;-67
2022/03/06 00:19:47;;;;;;;;;;;;;;;;;;5093585;28;19961;-67
2022/03/06 00:22:13;;;;;;;;;;;;;;;;;;5093107;28;19912;-67
2022/03/06 00:24:39;;;;;;;;;;;;;;;;;;5092285;28;19912;-67
2022/03/06 00:27:05;;;;;;;;;;;;;;;;;;5093524;28;19994;-67
2022/03/06 00:29:31;;;;;;;;;;;;;;;;;;5091539;28;19920;-67
2022/03/06 00:31:57;;;;;;;;;;;;;;;;;;5093437;28;19914;-67
2022/03/06 00:34:23;;;;;;;;;;;;;;;;;;5093388;28;20347;-67
2022/03/06 00:36:49;;;;;;;;;;;;;;;;;;5091662;28;19912;-67
2022/03/06 00:39:15;;;;;;;;;;;;;;;;;;5093395;28;19944;-67
2022/03/06 00:41:41;;;;;;;;;;;;;;;;;;5093411;28;19991;-67
2022/03/06 00:44:07;;;;;;;;;;;;;;;;;;5093035;28;19908;-67
2022/03/06 00:46:33;;;;;;;;;;;;;;;;;;5093283;28;20284;-67
2022/03/06 00:48:59;;;;;;;;;;;;;;;;;;5091917;28;20016;-68
2022/03/06 00:51:25;;;;;;;;;;;;;;;;;;5091665;28;19998;-67
2022/03/06 00:53:51;;;;;;;;;;;;;;;;;;5096065;28;19962;-67
2022/03/06 00:56:17;;;;;;;;;;;;;;;;;;5096987;28;19915;-67
2022/03/06 00:58:43;;;;;;;;;;;;;;;;;;5096395;28;19908;-68
2022/03/06 01:01:09;;;;;;;;;;;;;;;;;;5095515;28;19962;-67
2022/03/06 01:03:35;;;;;;;;;;;;;;;;;;5095040;28;19916;-67
2022/03/06 01:06:01;;;;;;;;;;;;;;;;;;5096594;28;19908;-67
2022/03/06 01:08:27;;;;;;;;;;;;;;;;;;5096531;28;20064;-67
2022/03/06 01:10:53;;;;;;;;;;;;;;;;;;5096274;28;19912;-67
2022/03/06 01:13:19;;;;;;;;;;;;;;;;;;5096757;28;19912;-67
2022/03/06 01:15:45;;;;;;;;;;;;;;;;;;5096492;28;20475;-67
2022/03/06 01:18:10;;;;;;;;;;;;;;;;;;5095980;28;19915;-67
2022/03/06 01:20:36;;;;;;;;;;;;;;;;;;5095136;28;19934;-67
2022/03/06 01:23:02;;;;;;;;;;;;;;;;;;5096322;28;20010;-67
2022/03/06 01:25:28;;;;;;;;;;;;;;;;;;5095843;28;19908;-67
2022/03/06 01:27:54;;;;;;;;;;;;;;;;;;5096012;28;19920;-68
2022/03/06 01:30:21;;;;;;;;;;;;;;;;;;5094841;28;19977;-67
2022/03/06 01:32:47;;;;;;;;;;;;;;;;;;5094703;28;19953;-67
2022/03/06 01:35:13;;;;;;;;;;;;;;;;;;5094930;28;20005;-67
2022/03/06 01:37:39;;;;;;;;;;;;;;;;;;5096000;28;19908;-67
2022/03/06 01:40:05;;;;;;;;;;;;;;;;;;5095762;28;19966;-67
2022/03/06 01:42:31;;;;;;;;;;;;;;;;;;5095976;28;19908;-67
2022/03/06 01:44:57;;;;;;;;;;;;;;;;;;5095895;28;20308;-68
2022/03/06 01:47:23;;;;;;;;;;;;;;;;;;5095449;28;19908;-68
2022/03/06 01:49:49;;;;;;;;;;;;;;;;;;5095683;28;19962;-67
2022/03/06 01:52:15;;;;;;;;;;;;;;;;;;5094434;28;19997;-67
2022/03/06 01:54:41;;;;;;;;;;;;;;;;;;5095286;28;19908;-67
2022/03/06 01:57:07;;;;;;;;;;;;;;;;;;5094345;28;19908;-68
2022/03/06 01:59:33;;;;;;;;;;;;;;;;;;5095581;28;19999;-68
2022/03/06 02:01:59;;;;;;;;;;;;;;;;;;5095081;28;19912;-68
2022/03/06 02:04:25;;;;;;;;;;;;;;;;;;5095344;28;19957;-67
2022/03/06 02:06:51;;;;;;;;;;;;;;;;;;5093813;28;19909;-67
2022/03/06 02:09:17;;;;;;;;;;;;;;;;;;5095338;28;20356;-67
2022/03/06 02:11:43;;;;;;;;;;;;;;;;;;5095536;28;19908;-67
2022/03/06 02:14:09;;;;;;;;;;;;;;;;;;5095254;28;19908;-67
2022/03/06 02:16:35;;;;;;;;;;;;;;;;;;5093942;28;19912;-68
2022/03/06 02:19:01;;;;;;;;;;;;;;;;;;5093925;28;20265;-67
2022/03/06 02:21:27;;;;;;;;;;;;;;;;;;5094750;28;19908;-67
2022/03/06 02:23:54;;;;;;;;;;;;;;;;;;5093916;28;19908;-67
2022/03/06 02:26:20;;;;;;;;;;;;;;;;;;5093831;28;19908;-67
2022/03/06 02:28:46;;;;;;;;;;;;;;;;;;5093057;28;20344;-68
2022/03/06 02:31:12;;;;;;;;;;;;;;;;;;5093742;28;19908;-67
2022/03/06 02:33:38;;;;;;;;;;;;;;;;;;5094953;28;19995;-66
2022/03/06 02:36:04;;;;;;;;;;;;;;;;;;5093258;28;19908;-68
2022/03/06 02:38:30;;;;;;;;;;;;;;;;;;5093519;28;19908;-68
2022/03/06 02:40:56;;;;;;;;;;;;;;;;;;5095021;28;19916;-67
2022/03/06 02:43:22;;;;;;;;;;;;;;;;;;5093075;28;20337;-67
2022/03/06 02:45:48;;;;;;;;;;;;;;;;;;5094744;28;19908;-67
2022/03/06 02:48:14;;;;;;;;;;;;;;;;;;5093460;28;19919;-67
2022/03/06 02:50:40;;;;;;;;;;;;;;;;;;5092916;28;20368;-67
2022/03/06 02:53:06;;;;;;;;;;;;;;;;;;5094658;28;19915;-67
2022/03/06 02:55:32;;;;;;;;;;;;;;;;;;5094570;28;19912;-67
2022/03/06 02:57:58;;;;;;;;;;;;;;;;;;5094191;28;19908;-67
2022/03/06 03:00:24;;;;;;;;;;;;;;;;;;5093235;28;19908;-68
2022/03/06 03:02:50;;;;;;;;;;;;;;;;;;5093285;28;19908;-67
2022/03/06 03:05:16;;;;;;;;;;;;;;;;;;5094070;28;19999;-67
2022/03/06 03:07:42;;;;;;;;;;;;;;;;;;5094647;28;20440;-67
2022/03/06 03:10:08;;;;;;;;;;;;;;;;;;5092645;28;19922;-67
2022/03/06 03:12:34;;;;;;;;;;;;;;;;;;5093065;28;19991;-67
2022/03/06 03:15:00;;;;;;;;;;;;;;;;;;5093809;28;19968;-67
2022/03/06 03:17:26;;;;;;;;;;;;;;;;;;5092585;28;19912;-67
2022/03/06 03:19:52;;;;;;;;;;;;;;;;;;5094206;28;19908;-67
2022/03/06 03:22:18;;;;;;;;;;;;;;;;;;5094771;28;19912;-67
2022/03/06 03:24:44;;;;;;;;;;;;;;;;;;5093723;28;19962;-67
2022/03/06 03:27:10;;;;;;;;;;;;;;;;;;5092613;28;20391;-68
2022/03/06 03:29:36;;;;;;;;;;;;;;;;;;5092837;28;19920;-67
2022/03/06 03:32:02;;;;;;;;;;;;;;;;;;5093598;28;20377;-67
2022/03/06 03:34:28;;;;;;;;;;;;;;;;;;5094022;28;19908;-67
2022/03/06 03:36:54;;;;;;;;;;;;;;;;;;5093954;28;19908;-68
2022/03/06 03:39:20;;;;;;;;;;;;;;;;;;5093640;28;19915;-67
2022/03/06 03:41:46;;;;;;;;;;;;;;;;;;5094092;28;20315;-67
2022/03/06 03:44:12;;;;;;;;;;;;;;;;;;5093856;28;19951;-67
2022/03/06 03:46:38;;;;;;;;;;;;;;;;;;5093423;28;19951;-67
2022/03/06 03:49:04;;;;;;;;;;;;;;;;;;5092529;28;19917;-67
2022/03/06 03:51:30;;;;;;;;;;;;;;;;;;5092526;28;20368;-67
2022/03/06 03:53:56;;;;;;;;;;;;;;;;;;5092116;28;19912;-67
2022/03/06 03:56:21;;;;;;;;;;;;;;;;;;5093895;28;20372;-67
2022/03/06 03:58:47;;;;;;;;;;;;;;;;;;5092408;28;20013;-67
2022/03/06 04:01:13;;;;;;;;;;;;;;;;;;5092070;28;19909;-67
2022/03/06 04:03:39;;;;;;;;;;;;;;;;;;5093694;28;19962;-67
2022/03/06 04:06:05;;;;;;;;;;;;;;;;;;5093866;28;20368;-67
2022/03/06 04:08:31;;;;;;;;;;;;;;;;;;5091897;28;19995;-67
2022/03/06 04:10:59;;;;;;;;;;;;;;;;;;5092311;28;19915;-67
2022/03/06 04:13:25;;;;;;;;;;;;;;;;;;5093320;28;19912;-67
2022/03/06 04:15:51;;;;;;;;;;;;;;;;;;5092280;28;20375;-67
2022/03/06 04:18:17;;;;;;;;;;;;;;;;;;5093645;28;19908;-67
2022/03/06 04:20:43;;;;;;;;;;;;;;;;;;5093334;28;19912;-67
2022/03/06 04:23:09;;;;;;;;;;;;;;;;;;5093560;28;19908;-67
2022/03/06 04:25:35;;;;;;;;;;;;;;;;;;5093841;28;19947;-67
2022/03/06 04:28:01;;;;;;;;;;;;;;;;;;5093357;28;19920;-67
2022/03/06 04:30:27;;;;;;;;;;;;;;;;;;5095984;28;19920;-68
2022/03/06 04:32:54;;;;;;;;;;;;;;;;;;5096024;28;20380;-67
2022/03/06 04:35:20;;;;;;;;;;;;;;;;;;5097045;28;20249;-67
2022/03/06 04:37:46;;;;;;;;;;;;;;;;;;5097211;28;19961;-67
2022/03/06 04:40:13;;;;;;;;;;;;;;;;;;5095912;28;19957;-67
2022/03/06 04:42:39;;;;;;;;;;;;;;;;;;5095476;28;20335;-67
2022/03/06 04:45:05;;;;;;;;;;;;;;;;;;5095732;28;19958;-67
2022/03/06 04:47:31;;;;;;;;;;;;;;;;;;5095697;28;19931;-67
2022/03/06 04:49:57;;;;;;;;;;;;;;;;;;5096487;28;19927;-67
2022/03/06 04:52:23;;;;;;;;;;;;;;;;;;5096969;28;19915;-67
2022/03/06 04:54:49;;;;;;;;;;;;;;;;;;5096867;28;19995;-67
2022/03/06 04:57:15;;;;;;;;;;;;;;;;;;5095191;28;19919;-67
2022/03/06 04:59:41;;;;;;;;;;;;;;;;;;5096748;28;19908;-67
2022/03/06 05:02:07;;;;;;;;;;;;;;;;;;5096744;28;20282;-68
2022/03/06 05:04:33;;;;;;;;;;;;;;;;;;5095117;28;19908;-67
2022/03/06 05:06:59;;;;;;;;;;;;;;;;;;5096687;28;19908;-67
2022/03/06 05:09:25;;;;;;;;;;;;;;;;;;5095245;28;20330;-67
2022/03/06 05:11:51;;;;;;;;;;;;;;;;;;5096164;28;19995;-67
2022/03/06 05:14:17;;;;;;;;;;;;;;;;;;5095254;28;19908;-67
2022/03/06 05:16:43;;;;;;;;;;;;;;;;;;5094778;28;20379;-68
2022/03/06 05:19:09;;;;;;;;;;;;;;;;;;5097071;28;19908;-67
2022/03/06 05:21:35;;;;;;;;;;;;;;;;;;5096372;28;19916;-67
2022/03/06 05:24:01;;;;;;;;;;;;;;;;;;5095991;28;19931;-68
2022/03/06 05:26:27;;;;;;;;;;;;;;;;;;5095212;28;19908;-68
2022/03/06 05:28:53;;;;;;;;;;;;;;;;;;5094663;28;19968;-66
2022/03/06 05:31:19;;;;;;;;;;;;;;;;;;5095658;28;19914;-66
2022/03/06 05:33:45;;;;;;;;;;;;;;;;;;5096110;28;20368;-67
2022/03/06 05:36:11;;;;;;;;;;;;;;;;;;5096130;28;19916;-68
2022/03/06 05:38:37;;;;;;;;;;;;;;;;;;5095327;28;20348;-68
2022/03/06 05:41:03;;;;;;;;;;;;;;;;;;5096284;28;19915;-67
2022/03/06 05:43:29;;;;;;;;;;;;;;;;;;5095966;28;20375;-68
2022/03/06 05:45:55;;;;;;;;;;;;;;;;;;5095517;28;19912;-68
2022/03/06 05:48:21;;;;;;;;;;;;;;;;;;5095824;28;19914;-68
2022/03/06 05:50:47;;;;;;;;;;;;;;;;;;5095865;28;20310;-67
2022/03/06 05:53:13;;;;;;;;;;;;;;;;;;5095618;28;19916;-67
2022/03/06 05:55:39;;;;;;;;;;;;;;;;;;5094432;28;19954;-67
2022/03/06 05:58:05;;;;;;;;;;;;;;;;;;5095588;28;20383;-67
2022/03/06 06:00:31;;;;;;;;;;;;;;;;;;5095156;28;19952;-67
2022/03/06 06:02:57;;;;;;;;;;;;;;;;;;5094254;28;19908;-67
2022/03/06 06:05:23;;;;;;;;;;;;;;;;;;5095941;28;20388;-67
2022/03/06 06:07:49;;;;;;;;;;;;;;;;;;5095147;28;19999;-67
2022/03/06 06:10:15;;;;;;;;;;;;;;;;;;5094077;28;19920;-67
2022/03/06 06:12:41;;;;;;;;;;;;;;;;;;5094076;28;19908;-67
2022/03/06 06:15:07;;;;;;;;;;;;;;;;;;5094953;28;19953;-67
2022/03/06 06:17:32;;;;;;;;;;;;;;;;;;5094006;28;19908;-67
2022/03/06 06:20:00;;;;;;;;;;;;;;;;;;5093789;28;19908;-67
2022/03/06 06:22:26;;;;;;;;;;;;;;;;;;5093909;28;19987;-67
2022/03/06 06:24:52;;;;;;;;;;;;;;;;;;5095012;28;19909;-67
2022/03/06 06:27:18;;;;;;;;;;;;;;;;;;5093160;28;20334;-67
2022/03/06 06:29:44;;;;;;;;;;;;;;;;;;5093786;28;20284;-67
2022/03/06 06:32:10;;;;;;;;;;;;;;;;;;5095078;28;19909;-67
2022/03/06 06:34:36;;;;;;;;;;;;;;;;;;5094777;28;19908;-67
2022/03/06 06:37:02;;;;;;;;;;;;;;;;;;5095018;28;19908;-67
2022/03/06 06:39:28;;;;;;;;;;;;;;;;;;5094891;28;19908;-67
2022/03/06 06:41:54;;;;;;;;;;;;;;;;;;5094440;28;19977;-67
2022/03/06 06:44:20;;;;;;;;;;;;;;;;;;5094863;28;20360;-67
2022/03/06 06:46:46;;;;;;;;;;;;;;;;;;5095107;28;19908;-67
2022/03/06 06:49:12;;;;;;;;;;;;;;;;;;5094267;28;19968;-67
2022/03/06 06:51:41;;;;;;;;;;;;;;;;;;5093949;28;20264;-67
2022/03/06 06:54:07;;;;;;;;;;;;;;;;;;5093374;28;19908;-67
2022/03/06 06:56:33;;;;;;;;;;;;;;;;;;5094173;28;20275;-67
2022/03/06 06:58:59;;;;;;;;;;;;;;;;;;5094603;28;20364;-67
2022/03/06 07:01:25;;;;;;;;;;;;;;;;;;5094517;28;19912;-67
2022/03/06 07:03:51;;;;;;;;;;;;;;;;;;5093961;28;20341;-67
2022/03/06 07:06:16;;;;;;;;;;;;;;;;;;5093158;28;19908;-67
2022/03/06 07:08:42;;;;;;;;;;;;;;;;;;5094522;28;19915;-67
2022/03/06 07:11:08;;;;;;;;;;;;;;;;;;5092642;28;19990;-67
2022/03/06 07:13:34;;;;;;;;;;;;;;;;;;5094907;28;19908;-67
2022/03/06 07:16:00;;;;;;;;;;;;;;;;;;5094281;28;20384;-67
2022/03/06 07:18:26;;;;;;;;;;;;;;;;;;5093830;28;19929;-67
2022/03/06 07:20:53;;;;;;;;;;;;;;;;;;5094176;28;19931;-67
2022/03/06 07:23:19;;;;;;;;;;;;;;;;;;5092333;28;19996;-67
2022/03/06 07:25:46;;;;;;;;;;;;;;;;;;5093936;28;19927;-67
2022/03/06 07:28:12;;;;;;;;;;;;;;;;;;5093971;28;19920;-67
2022/03/06 07:30:38;;;;;;;;;;;;;;;;;;5093622;28;19935;-67
2022/03/06 07:33:04;;;;;;;;;;;;;;;;;;5094209;28;20002;-67
2022/03/06 07:35:30;;;;;;;;;;;;;;;;;;5092731;28;20272;-67
2022/03/06 07:37:56;;;;;;;;;;;;;;;;;;5093816;28;19909;-67
2022/03/06 07:40:22;;;;;;;;;;;;;;;;;;5092632;28;19931;-67
2022/03/06 07:42:48;;;;;;;;;;;;;;;;;;5092625;28;19908;-67
2022/03/06 07:45:15;;;;;;;;;;;;;;;;;;5093826;28;19915;-67
2022/03/06 07:47:40;;;;;;;;;;;;;;;;;;5092595;28;19908;-67
2022/03/06 07:50:07;;;;;;;;;;;;;;;;;;5093742;28;19969;-67
2022/03/06 07:52:33;;;;;;;;;;;;;;;;;;5092229;28;19908;-67
2022/03/06 07:54:59;;;;;;;;;;;;;;;;;;5093768;28;19931;-67
2022/03/06 07:57:25;;;;;;;;;;;;;;;;;;5093811;28;19911;-67
2022/03/06 07:59:51;;;;;;;;;;;;;;;;;;5093518;28;20344;-67
2022/03/06 08:02:17;;;;;;;;;;;;;;;;;;5096096;28;19915;-67
2022/03/06 08:04:43;;;;;;;;;;;;;;;;;;5097905;28;19908;-67
2022/03/06 08:07:09;;;;;;;;;;;;;;;;;;5097567;28;20398;-67
2022/03/06 08:09:35;;;;;;;;;;;;;;;;;;5097820;28;19920;-67
2022/03/06 08:12:01;;;;;;;;;;;;;;;;;;5097790;28;19995;-67
2022/03/06 08:14:27;;;;;;;;;;;;;;;;;;5097281;28;19908;-67
2022/03/06 08:16:53;;;;;;;;;;;;;;;;;;5097607;28;19908;-67
2022/03/06 08:19:19;;;;;;;;;;;;;;;;;;5097589;28;19961;-67
2022/03/06 08:21:45;;;;;;;;;;;;;;;;;;5097189;28;19912;-68
2022/03/06 08:24:11;;;;;;;;;;;;;;;;;;5096250;28;19908;-67
2022/03/06 08:26:37;;;;;;;;;;;;;;;;;;5097090;28;19931;-67
2022/03/06 08:29:04;;;;;;;;;;;;;;;;;;5097250;28;19928;-67
2022/03/06 08:31:30;;;;;;;;;;;;;;;;;;5096095;28;19934;-67
2022/03/06 08:33:56;;;;;;;;;;;;;;;;;;5097041;28;20726;-67
2022/03/06 08:36:22;;;;;;;;;;;;;;;;;;5097569;28;19912;-67
2022/03/06 08:38:48;;;;;;;;;;;;;;;;;;5095932;28;19908;-67
2022/03/06 08:41:14;;;;;;;;;;;;;;;;;;5096745;28;19958;-67
2022/03/06 08:43:39;;;;;;;;;;;;;;;;;;5095856;28;19908;-67
2022/03/06 08:46:05;;;;;;;;;;;;;;;;;;5097132;28;19912;-68
2022/03/06 08:48:32;;;;;;;;;;;;;;;;;;5096927;28;20315;-68
2022/03/06 08:50:58;;;;;;;;;;;;;;;;;;5097028;28;19948;-68
2022/03/06 08:53:24;;;;;;;;;;;;;;;;;;5095675;28;20372;-67
2022/03/06 08:55:50;;;;;;;;;;;;;;;;;;5096476;28;19912;-68
2022/03/06 08:58:16;;;;;;;;;;;;;;;;;;5096907;28;20309;-68
2022/03/06 09:00:42;;;;;;;;;;;;;;;;;;5096776;28;19908;-68
2022/03/06 09:03:08;;;;;;;;;;;;;;;;;;5096327;28;19908;-68
2022/03/06 09:05:40;;;;;;;;;;;;;;;;;;5096686;28;19981;-68
2022/03/06 09:08:06;;;;;;;;;;;;;;;;;;5095416;28;19912;-68
2022/03/06 09:10:32;;;;;;;;;;;;;;;;;;5096159;28;19923;-67
2022/03/06 09:13:00;;;;;;;;;;;;;;;;;;5094321;28;19908;-67
2022/03/06 09:15:26;;;;;;;;;;;;;;;;;;5095671;28;20366;-67
2022/03/06 09:17:52;;;;;;;;;;;;;;;;;;5096126;28;19999;-68
2022/03/06 09:20:18;;;;;;;;;;;;;;;;;;5096604;28;19951;-68
2022/03/06 09:22:46;;;;;;;;;;;;;;;;;;5096443;28;19908;-68
2022/03/06 09:25:12;;;;;;;;;;;;;;;;;;5095896;28;19908;-68
2022/03/06 09:27:38;;;;;;;;;;;;;;;;;;5096237;28;19912;-68
2022/03/06 09:30:03;;;;;;;;;;;;;;;;;;5094431;28;19916;-68
2022/03/06 09:32:29;;;;;;;;;;;;;;;;;;5094945;28;19909;-68
2022/03/06 09:34:55;;;;;;;;;;;;;;;;;;5094708;28;19912;-68
2022/03/06 09:37:21;;;;;;;;;;;;;;;;;;5095709;28;19950;-68
2022/03/06 09:39:48;;;;;;;;;;;;;;;;;;5096026;28;19915;-68
2022/03/06 09:42:14;;;;;;;;;;;;;;;;;;5094636;28;19908;-67
2022/03/06 09:44:40;;;;;;;;;;;;;;;;;;5095485;28;19915;-68
2022/03/06 09:47:06;;;;;;;;;;;;;;;;;;5095971;28;20391;-68
2022/03/06 09:49:32;;;;;;;;;;;;;;;;;;5095861;28;20424;-67
2022/03/06 09:51:58;;;;;;;;;;;;;;;;;;5094124;28;19946;-67
2022/03/06 09:54:24;;;;;;;;;;;;;;;;;;5094442;28;19908;-66
2022/03/06 09:56:51;;;;;;;;;;;;;;;;;;5094410;28;19908;-68
2022/03/06 09:59:17;;;;;;;;;;;;;;;;;;5093954;28;19908;-68
2022/03/06 10:01:42;;;;;;;;;;;;;;;;;;5094286;28;20007;-67
2022/03/06 10:04:08;;;;;;;;;;;;;;;;;;5095561;28;19912;-67
2022/03/06 10:06:34;;;;;;;;;;;;;;;;;;5094963;28;20372;-67
2022/03/06 10:09:00;;;;;;;;;;;;;;;;;;5094342;28;19964;-68
2022/03/06 10:11:26;;;;;;;;;;;;;;;;;;5095407;28;19915;-68
2022/03/06 10:13:52;;;;;;;;;;;;;;;;;;5093712;28;20276;-68
2022/03/06 10:16:18;;;;;;;;;;;;;;;;;;5095363;28;19908;-68
2022/03/06 10:18:44;;;;;;;;;;;;;;;;;;5094019;28;20287;-68
2022/03/06 10:21:11;;;;;;;;;;;;;;;;;;5094896;28;19908;-67
2022/03/06 10:23:37;;;;;;;;;;;;;;;;;;5095281;28;19908;-68
2022/03/06 10:26:03;;;;;;;;;;;;;;;;;;5095200;28;20317;-67
2022/03/06 10:28:29;;;;;;;;;;;;;;;;;;5093210;28;19920;-69
2022/03/06 10:30:55;;;;;;;;;;;;;;;;;;5093766;28;19948;-68
2022/03/06 10:33:21;;;;;;;;;;;;;;;;;;5093282;28;19986;-68
2022/03/06 10:35:47;;;;;;;;;;;;;;;;;;5094996;28;20411;-68
2022/03/06 10:38:13;;;;;;;;;;;;;;;;;;5094813;28;19908;-68
2022/03/06 10:40:39;;;;;;;;;;;;;;;;;;5094500;28;19915;-68
2022/03/06 10:43:05;;;;;;;;;;;;;;;;;;5095069;28;20414;-68
2022/03/06 10:45:31;;;;;;;;;;;;;;;;;;5094797;28;19912;-68
2022/03/06 10:47:57;;;;;;;;;;;;;;;;;;5094161;28;19909;-68
2022/03/06 10:50:23;;;;;;;;;;;;;;;;;;5094480;28;19938;-68
2022/03/06 10:52:53;;;;;;;;;;;;;;;;;;5093228;28;20336;-68
2022/03/06 10:55:19;;;;;;;;;;;;;;;;;;5094343;28;20067;-68
2022/03/06 10:57:45;;;;;;;;;;;;;;;;;;5094559;28;20026;-68
2022/03/06 11:00:11;;;;;;;;;;;;;;;;;;5094752;28;19916;-68
2022/03/06 11:02:37;;;;;;;;;;;;;;;;;;5094152;28;19908;-68
2022/03/06 11:05:03;;;;;;;;;;;;;;;;;;5093596;28;19944;-66
2022/03/06 11:07:29;;;;;;;;;;;;;;;;;;5094471;28;19916;-67
2022/03/06 11:09:57;;;;;;;;;;;;;;;;;;5092528;28;20433;-67
2022/03/06 11:12:23;;;;;;;;;;;;;;;;;;5094720;28;19982;-67
2022/03/06 11:14:49;;;;;;;;;;;;;;;;;;5094251;28;19951;-67
2022/03/06 11:17:15;;;;;;;;;;;;;;;;;;5093859;28;20009;-68
2022/03/06 11:19:41;;;;;;;;;;;;;;;;;;5094258;28;20364;-67
2022/03/06 11:22:06;;;;;;;;;;;;;;;;;;5094219;28;19912;-67
2022/03/06 11:24:33;;;;;;;;;;;;;;;;;;5093750;28;19919;-67
2022/03/06 11:26:59;;;;;;;;;;;;;;;;;;5094023;28;19908;-67
2022/03/06 11:29:25;;;;;;;;;;;;;;;;;;5092143;28;19928;-66
2022/03/06 11:31:51;;;;;;;;;;;;;;;;;;5094063;28;19954;-67
2022/03/06 11:34:17;;;;;;;;;;;;;;;;;;5093993;28;19908;-67
2022/03/06 11:36:43;;;;;;;;;;;;;;;;;;5093270;28;19908;-67
2022/03/06 11:39:09;;;;;;;;;;;;;;;;;;5093794;28;19908;-67
2022/03/06 11:41:35;;;;;;;;;;;;;;;;;;5094182;28;19912;-67
2022/03/06 11:44:01;;;;;;;;;;;;;;;;;;5092223;28;19939;-67
2022/03/06 11:46:28;;;;;;;;;;;;;;;;;;5092636;28;19961;-67
2022/03/06 11:48:54;;;;;;;;;;;;;;;;;;5092664;28;19915;-67
2022/03/06 11:51:20;;;;;;;;;;;;;;;;;;5093476;28;19908;-67
2022/03/06 11:53:46;;;;;;;;;;;;;;;;;;5093937;28;19908;-67
2022/03/06 11:56:12;;;;;;;;;;;;;;;;;;5094081;28;19908;-67
2022/03/06 11:58:38;;;;;;;;;;;;;;;;;;5093453;28;19912;-67
2022/03/06 12:01:04;;;;;;;;;;;;;;;;;;5093784;28;20323;-67
2022/03/06 12:03:30;;;;;;;;;;;;;;;;;;5094161;28;19915;-67
2022/03/06 12:05:57;;;;;;;;;;;;;;;;;;5093303;28;19962;-69
2022/03/06 12:08:23;;;;;;;;;;;;;;;;;;5093801;28;19908;-67
2022/03/06 12:10:49;;;;;;;;;;;;;;;;;;5093720;28;20284;-67
2022/03/06 12:13:15;;;;;;;;;;;;;;;;;;5093253;28;20003;-67
2022/03/06 12:15:41;;;;;;;;;;;;;;;;;;5092078;28;19909;-68
2022/03/06 12:18:07;;;;;;;;;;;;;;;;;;5093697;28;20404;-67
2022/03/06 12:20:33;;;;;;;;;;;;;;;;;;5093265;28;19908;-67
2022/03/06 12:23:02;;;;;;;;;;;;;;;;;;5093572;28;20383;-67
2022/03/06 12:25:33;;;;;;;;;;;;;;;;;;5093478;28;19908;-67
2022/03/06 12:27:59;;;;;;;;;;;;;;;;;;5092912;28;20380;-67
2022/03/06 12:30:25;;;;;;;;;;;;;;;;;;5092129;28;19966;-67
2022/03/06 12:32:51;;;;;;;;;;;;;;;;;;5093169;28;20257;-69
2022/03/06 12:35:17;;;;;;;;;;;;;;;;;;5092184;28;19912;-68
2022/03/06 12:37:43;;;;;;;;;;;;;;;;;;5093449;28;19947;-68
2022/03/06 12:40:09;;;;;;;;;;;;;;;;;;5091883;28;19953;-68
2022/03/06 12:42:36;;;;;;;;;;;;;;;;;;5092158;28;19912;-68
2022/03/06 12:45:02;;;;;;;;;;;;;;;;;;5093553;28;20329;-66
2022/03/06 12:47:31;;;;;;;;;;;;;;;;;;5091681;28;19908;-68
2022/03/06 12:49:59;;;;;;;;;;;;;;;;;;5096233;28;19916;-68
2022/03/06 12:52:28;;;;;;;;;;;;;;;;;;5096931;28;20364;-68
2022/03/06 12:54:54;;;;;;;;;;;;;;;;;;5096584;28;20379;-67
2022/03/06 12:57:20;;;;;;;;;;;;;;;;;;5096838;28;19908;-68
2022/03/06 12:59:48;;;;;;;;;;;;;;;;;;5096895;28;19995;-67
2022/03/06 13:02:14;;;;;;;;;;;;;;;;;;5095277;28;20370;-67
2022/03/06 13:04:40;;;;;;;;;;;;;;;;;;5096760;28;19907;-67
2022/03/06 13:07:06;;;;;;;;;;;;;;;;;;5095395;28;19930;-68
2022/03/06 13:09:34;;;;;;;;;;;;;;;;;;5094939;28;19916;-68
2022/03/06 13:12:00;;;;;;;;;;;;;;;;;;5095318;28;20261;-68
2022/03/06 13:14:26;;;;;;;;;;;;;;;;;;5096694;28;20375;-68
2022/03/06 13:16:52;;;;;;;;;;;;;;;;;;5096147;28;20339;-68
2022/03/06 13:19:18;;;;;;;;;;;;;;;;;;5096754;28;20017;-68
2022/03/06 13:21:44;;;;;;;;;;;;;;;;;;5095111;28;19925;-68
2022/03/06 13:24:12;;;;;;;;;;;;;;;;;;5094795;28;20020;-68
2022/03/06 13:26:38;;;;;;;;;;;;;;;;;;5096254;28;19908;-68
2022/03/06 13:29:03;;;;;;;;;;;;;;;;;;5095675;28;20296;-68
2022/03/06 13:31:29;;;;;;;;;;;;;;;;;;5094876;28;19920;-68
2022/03/06 13:33:55;;;;;;;;;;;;;;;;;;5094857;28;20363;-68
2022/03/06 13:36:21;;;;;;;;;;;;;;;;;;5095748;28;19915;-68
2022/03/06 13:38:47;;;;;;;;;;;;;;;;;;5096057;28;19908;-68
2022/03/06 13:41:13;;;;;;;;;;;;;;;;;;5096334;28;20009;-68
2022/03/06 13:43:40;;;;;;;;;;;;;;;;;;5095666;28;19912;-68
2022/03/06 13:46:05;;;;;;;;;;;;;;;;;;5094665;28;19912;-67
2022/03/06 13:48:34;;;;;;;;;;;;;;;;;;5095829;28;20283;-68
2022/03/06 13:50:59;;;;;;;;;;;;;;;;;;5095464;28;20014;-68
2022/03/06 13:53:26;;;;;;;;;;;;;;;;;;5094456;28;19966;-67
2022/03/06 13:55:52;;;;;;;;;;;;;;;;;;5095775;28;19912;-68
2022/03/06 13:58:18;;;;;;;;;;;;;;;;;;5093924;28;19912;-68
2022/03/06 14:00:44;;;;;;;;;;;;;;;;;;5095760;28;19925;-68
2022/03/06 14:03:10;;;;;;;;;;;;;;;;;;5095594;28;19909;-68
2022/03/06 14:05:36;;;;;;;;;;;;;;;;;;5094042;28;19908;-67
2022/03/06 14:08:02;;;;;;;;;;;;;;;;;;5094214;28;19916;-68
2022/03/06 14:10:28;;;;;;;;;;;;;;;;;;5095443;28;19922;-67
2022/03/06 14:12:54;;;;;;;;;;;;;;;;;;5094966;28;19915;-67
2022/03/06 14:15:21;;;;;;;;;;;;;;;;;;5095919;28;20359;-68
2022/03/06 14:17:47;;;;;;;;;;;;;;;;;;5095653;28;19912;-68
2022/03/06 14:20:13;;;;;;;;;;;;;;;;;;5093610;28;19908;-68
2022/03/06 14:22:39;;;;;;;;;;;;;;;;;;5095252;28;19908;-68
2022/03/06 14:25:05;;;;;;;;;;;;;;;;;;5095165;28;20291;-68
2022/03/06 14:27:31;;;;;;;;;;;;;;;;;;5093354;28;19924;-68
2022/03/06 14:29:57;;;;;;;;;;;;;;;;;;5093757;28;20372;-67
2022/03/06 14:32:23;;;;;;;;;;;;;;;;;;5094685;28;19996;-68
2022/03/06 14:34:49;;;;;;;;;;;;;;;;;;5095065;28;19944;-68
2022/03/06 14:37:15;;;;;;;;;;;;;;;;;;5094960;28;19915;-67
2022/03/06 14:39:41;;;;;;;;;;;;;;;;;;5094486;28;19908;-68
2022/03/06 14:42:07;;;;;;;;;;;;;;;;;;5094787;28;19915;-68
2022/03/06 14:44:33;;;;;;;;;;;;;;;;;;5094777;28;19908;-68
2022/03/06 14:46:59;;;;;;;;;;;;;;;;;;5093106;28;20369;-68
2022/03/06 14:49:25;;;;;;;;;;;;;;;;;;5093231;28;19972;-68
2022/03/06 14:51:51;;;;;;;;;;;;;;;;;;5094936;28;19909;-68
2022/03/06 14:54:22;;;;;;;;;;;;;;;;;;5094425;28;20268;-68
2022/03/06 14:56:48;;;;;;;;;;;;;;;;;;5094968;28;19908;-67
2022/03/06 14:59:14;;;;;;;;;;;;;;;;;;5093198;28;19915;-68
2022/03/06 15:01:40;;;;;;;;;;;;;;;;;;5094094;28;20326;-68
2022/03/06 15:04:06;;;;;;;;;;;;;;;;;;5093132;28;19908;-68
2022/03/06 15:06:32;;;;;;;;;;;;;;;;;;5093399;28;20356;-67
2022/03/06 15:08:59;;;;;;;;;;;;;;;;;;5092730;28;19995;-67
2022/03/06 15:11:25;;;;;;;;;;;;;;;;;;5093606;28;19912;-67
2022/03/06 15:13:51;;;;;;;;;;;;;;;;;;5094252;28;20425;-67
2022/03/06 15:16:17;;;;;;;;;;;;;;;;;;5093787;28;19991;-67
2022/03/06 15:18:44;;;;;;;;;;;;;;;;;;5092889;28;19955;-68
2022/03/06 15:21:10;;;;;;;;;;;;;;;;;;5094522;28;20284;-68
2022/03/06 15:23:36;;;;;;;;;;;;;;;;;;5092434;28;19908;-67
2022/03/06 15:26:02;;;;;;;;;;;;;;;;;;5092843;28;20015;-68
2022/03/06 15:28:29;;;;;;;;;;;;;;;;;;5093986;28;19920;-68
2022/03/06 15:30:58;;;;;;;;;;;;;;;;;;5093230;28;20632;-68
2022/03/06 15:33:24;;;;;;;;;;;;;;;;;;5092569;28;19909;-68
2022/03/06 15:35:50;;;;;;;;;;;;;;;;;;5094103;28;19958;-68
2022/03/06 15:38:16;;;;;;;;;;;;;;;;;;5092604;28;19931;-68
2022/03/06 15:40:42;;;;;;;;;;;;;;;;;;5094016;28;19958;-68
2022/03/06 15:43:08;;;;;;;;;;;;;;;;;;5093484;28;19947;-68
2022/03/06 15:45:34;;;;;;;;;;;;;;;;;;5092562;28;20398;-67
2022/03/06 15:48:00;;;;;;;;;;;;;;;;;;5093881;28;19936;-67
2022/03/06 15:50:26;;;;;;;;;;;;;;;;;;5092093;28;20394;-67
2022/03/06 15:52:52;;;;;;;;;;;;;;;;;;5093823;28;19908;-67
2022/03/06 15:55:18;;;;;;;;;;;;;;;;;;5093838;28;19995;-67
2022/03/06 15:57:44;;;;;;;;;;;;;;;;;;5093413;28;19908;-67
2022/03/06 16:00:10;;;;;;;;;;;;;;;;;;5094117;28;20335;-67
2022/03/06 16:02:36;;;;;;;;;;;;;;;;;;5093818;28;19943;-67
2022/03/06 16:05:02;;;;;;;;;;;;;;;;;;5093330;28;19977;-67
2022/03/06 16:07:28;;;;;;;;;;;;;;;;;;5093743;28;19908;-67
2022/03/06 16:09:54;;;;;;;;;;;;;;;;;;5093597;28;19916;-67
2022/03/06 16:12:20;;;;;;;;;;;;;;;;;;5093431;28;19915;-67
2022/03/06 16:14:46;;;;;;;;;;;;;;;;;;5093689;28;20330;-67
2022/03/06 16:17:12;;;;;;;;;;;;;;;;;;5092338;28;19951;-67
2022/03/06 16:19:38;;;;;;;;;;;;;;;;;;5093201;28;20272;-67
2022/03/06 16:22:04;;;;;;;;;;;;;;;;;;5092658;28;19909;-68
2022/03/06 16:24:30;;;;;;;;;;;;;;;;;;5097793;28;19908;-67
2022/03/06 16:26:56;;;;;;;;;;;;;;;;;;5097137;28;19915;-67
2022/03/06 16:29:22;;;;;;;;;;;;;;;;;;5095943;28;20291;-66
2022/03/06 16:31:48;;;;;;;;;;;;;;;;;;5097048;28;19953;-67
2022/03/06 16:34:14;;;;;;;;;;;;;;;;;;5096027;28;19908;-67
2022/03/06 16:36:40;;;;;;;;;;;;;;;;;;5097725;28;20314;-67